createdAt,value
2022-11-19T00:02:50.164Z,39.60
2022-11-19T00:06:18.759Z,42.60
2022-11-19T00:09:45.562Z,60.90
2022-11-19T00:13:13.496Z,50.50
2022-11-19T00:16:40.603Z,47.30
2022-11-19T00:20:08.940Z,36.30
2022-11-19T00:23:35.782Z,43.70
2022-11-19T00:27:02.749Z,42.90
2022-11-19T00:34:16.240Z,60.60
2022-11-19T00:37:43.114Z,56.80
2022-11-19T00:41:10.380Z,64.70
2022-11-19T00:44:37.642Z,61.60
2022-11-19T00:48:04.435Z,55.50
2022-11-19T00:51:32.247Z,52.70
2022-11-19T00:54:58.885Z,48.10
2022-11-19T00:58:25.553Z,52.50
2022-11-19T01:01:52.186Z,41.30
2022-11-19T01:05:19.192Z,43.70
2022-11-19T01:08:46.173Z,39.00
2022-11-19T01:12:12.733Z,46.90
2022-11-19T01:15:39.497Z,45.70
2022-11-19T01:19:07.335Z,41.50
2022-11-19T01:22:33.956Z,43.20
2022-11-19T01:26:00.985Z,40.90
2022-11-19T01:29:27.661Z,42.20
2022-11-19T01:32:54.306Z,41.40
2022-11-19T01:36:22.743Z,45.80
2022-11-19T01:39:49.517Z,49.40
2022-11-19T01:43:16.546Z,55.10
2022-11-19T01:46:43.219Z,53.00
2022-11-19T01:50:10.720Z,56.30
2022-11-19T01:53:39.301Z,50.10
2022-11-19T01:57:10.751Z,48.70
2022-11-19T02:00:37.619Z,48.70
2022-11-19T02:04:05.876Z,46.10
2022-11-19T02:07:35.411Z,83.80
2022-11-19T02:11:16.736Z,62.70
2022-11-19T02:15:02.046Z,51.70
2022-11-19T02:18:43.052Z,57.50
2022-11-19T02:22:29.647Z,49.30
2022-11-19T02:26:24.606Z,73.20
2022-11-19T02:30:09.767Z,70.60
2022-11-19T02:33:45.293Z,57.70
2022-11-19T02:37:16.423Z,45.30
2022-11-19T02:40:49.249Z,50.60
2022-11-19T02:44:41.141Z,50.90
2022-11-19T02:48:13.394Z,61.60
2022-11-19T02:51:40.760Z,55.30
2022-11-19T02:55:08.785Z,48.80
2022-11-19T02:58:54.896Z,47.60
2022-11-19T03:02:41.554Z,45.30
2022-11-19T03:06:13.331Z,54.60
2022-11-19T03:09:47.206Z,50.00
2022-11-19T03:13:39.353Z,47.70
2022-11-19T03:17:13.750Z,45.70
2022-11-19T03:20:45.960Z,54.10
2022-11-19T03:24:19.516Z,54.70
2022-11-19T03:27:49.708Z,52.80
2022-11-19T03:31:19.861Z,44.00
2022-11-19T03:34:50.386Z,53.90
2022-11-19T03:38:32.013Z,49.80
2022-11-19T03:41:59.439Z,49.20
2022-11-19T03:45:30.793Z,49.40
2022-11-19T03:49:00.573Z,49.70
2022-11-19T03:52:27.377Z,50.00
2022-11-19T03:55:58.877Z,45.20
2022-11-19T03:59:29.660Z,53.80
2022-11-19T04:02:56.956Z,76.30
2022-11-19T04:06:23.734Z,106.10
2022-11-19T04:09:50.756Z,74.10
2022-11-19T04:13:17.420Z,45.50
2022-11-19T04:16:44.437Z,47.30
2022-11-19T04:20:12.501Z,40.30
2022-11-19T04:23:39.144Z,45.00
2022-11-19T04:27:05.750Z,40.20
2022-11-19T04:30:32.416Z,43.80
2022-11-19T04:33:59.327Z,41.30
2022-11-19T04:37:25.933Z,45.00
2022-11-19T04:40:52.526Z,47.50
2022-11-19T04:44:19.437Z,40.70
2022-11-19T04:47:46.219Z,38.80
2022-11-19T04:51:13.087Z,37.10
2022-11-19T04:54:40.585Z,46.10
2022-11-19T04:58:07.199Z,51.30
2022-11-19T05:01:34.247Z,50.50
2022-11-19T05:05:01.002Z,52.50
2022-11-19T05:19:38.579Z,55.50
2022-11-19T05:23:05.593Z,55.50
2022-11-19T05:26:32.209Z,49.10
2022-11-19T05:29:58.821Z,53.20
2022-11-19T05:33:28.681Z,38.90
2022-11-19T05:36:57.999Z,46.70
2022-11-19T05:40:25.088Z,45.50
2022-11-19T05:43:51.760Z,47.10
2022-11-19T05:47:20.042Z,39.40
2022-11-19T05:50:46.971Z,45.40
2022-11-19T05:54:15.253Z,48.20
2022-11-19T05:57:41.918Z,47.00
2022-11-19T06:01:09.921Z,53.10
2022-11-19T06:14:26.393Z,46.20
2022-11-19T06:17:53.242Z,51.70
2022-11-19T06:21:19.890Z,48.30
2022-11-19T06:24:47.089Z,43.80
2022-11-19T06:28:13.799Z,44.90
2022-11-19T06:31:40.815Z,51.70
2022-11-19T06:35:08.845Z,49.20
2022-11-19T06:38:36.207Z,44.60
2022-11-19T06:42:16.821Z,42.40
2022-11-19T06:45:43.624Z,60.40
2022-11-19T06:49:19.599Z,56.40
2022-11-19T06:52:47.054Z,48.70
2022-11-19T06:56:14.126Z,53.60
2022-11-19T06:59:40.927Z,44.90
2022-11-19T07:03:07.666Z,51.80
2022-11-19T07:06:34.291Z,54.10
2022-11-19T07:10:01.181Z,52.30
2022-11-19T07:13:48.764Z,54.00
2022-11-19T07:17:15.579Z,53.30
2022-11-19T07:20:42.611Z,51.50
2022-11-19T07:24:11.783Z,62.80
2022-11-19T07:27:38.635Z,45.50
2022-11-19T07:31:09.225Z,42.90
2022-11-19T07:34:35.870Z,54.30
2022-11-19T07:38:02.514Z,45.80
2022-11-19T07:41:47.081Z,44.00
2022-11-19T07:45:14.044Z,42.10
2022-11-19T07:48:40.700Z,35.30
2022-11-19T07:52:07.452Z,38.90
2022-11-19T07:55:34.374Z,39.50
2022-11-19T07:59:04.719Z,38.80
2022-11-19T08:02:32.202Z,38.00
2022-11-19T08:05:58.993Z,41.50
2022-11-19T08:09:25.661Z,35.90
2022-11-19T08:13:03.268Z,38.60
2022-11-19T08:16:47.917Z,42.40
2022-11-19T08:20:15.058Z,38.30
2022-11-19T08:23:42.176Z,46.10
2022-11-19T08:27:09.245Z,45.20
2022-11-19T08:30:36.215Z,44.20
2022-11-19T08:34:03.782Z,52.40
2022-11-19T08:37:30.775Z,41.90
2022-11-19T08:41:12.287Z,45.50
2022-11-19T08:44:38.880Z,52.60
2022-11-19T08:48:10.333Z,46.40
2022-11-19T08:51:37.110Z,42.70
2022-11-19T08:55:03.818Z,56.40
2022-11-19T08:58:30.400Z,46.70
2022-11-19T09:01:57.123Z,49.20
2022-11-19T09:05:24.578Z,49.20
2022-11-19T09:08:51.871Z,40.30
2022-11-19T09:12:18.780Z,42.10
2022-11-19T09:15:49.046Z,43.90
2022-11-19T09:19:15.812Z,38.10
2022-11-19T09:22:42.880Z,41.10
2022-11-19T09:26:13.432Z,35.70
2022-11-19T09:29:40.185Z,36.20
2022-11-19T09:33:06.771Z,37.90
2022-11-19T09:36:33.399Z,36.70
2022-11-19T09:40:00.080Z,41.90
2022-11-19T09:43:43.439Z,41.00
2022-11-19T09:47:24.116Z,35.20
2022-11-19T09:50:55.166Z,31.50
2022-11-19T09:54:24.399Z,34.30
2022-11-19T09:57:54.120Z,33.60
2022-11-19T10:04:48.558Z,28.90
2022-11-19T10:08:29.754Z,36.20
2022-11-19T10:12:08.026Z,37.10
2022-11-19T10:15:39.225Z,29.30
2022-11-19T10:19:15.353Z,29.20
2022-11-19T10:22:56.936Z,35.80
2022-11-19T10:26:33.701Z,34.00
2022-11-19T10:30:05.449Z,34.20
2022-11-19T10:33:36.344Z,47.20
2022-11-19T10:37:09.740Z,36.90
2022-11-19T10:40:42.309Z,36.80
2022-11-19T10:44:35.434Z,41.10
2022-11-19T10:48:09.313Z,34.70
2022-11-19T10:51:43.208Z,38.50
2022-11-19T10:55:19.871Z,39.20
2022-11-19T10:58:51.510Z,35.30
2022-11-19T11:02:28.435Z,29.20
2022-11-19T11:06:02.042Z,30.60
2022-11-19T11:09:34.916Z,26.90
2022-11-19T11:13:35.269Z,29.00
2022-11-19T11:17:03.113Z,29.60
2022-11-19T11:20:32.160Z,29.80
2022-11-19T11:24:00.676Z,26.00
2022-11-19T11:27:33.710Z,26.80
2022-11-19T11:31:02.478Z,25.00
2022-11-19T11:34:34.436Z,28.60
2022-11-19T11:38:02.997Z,27.40
2022-11-19T11:42:04.694Z,27.70
2022-11-19T11:45:33.560Z,28.60
2022-11-19T11:49:06.885Z,28.80
2022-11-19T11:52:41.898Z,26.90
2022-11-19T11:56:11.449Z,29.30
2022-11-19T11:59:38.588Z,40.80
2022-11-19T12:03:07.279Z,31.50
2022-11-19T12:06:42.685Z,38.20
2022-11-19T12:10:21.919Z,34.00
2022-11-19T12:13:58.388Z,34.10
2022-11-19T12:17:38.698Z,29.20
2022-11-19T12:21:12.196Z,30.70
2022-11-19T12:24:56.491Z,35.90
2022-11-19T12:28:33.087Z,30.20
2022-11-19T12:32:22.357Z,31.20
2022-11-19T12:35:57.754Z,34.40
2022-11-19T12:39:37.571Z,36.80
2022-11-19T12:43:16.178Z,47.90
2022-11-19T12:46:52.018Z,34.20
2022-11-19T12:50:27.063Z,27.70
2022-11-19T12:54:22.419Z,26.90
2022-11-19T12:58:02.843Z,25.70
2022-11-19T13:01:34.205Z,16.90
2022-11-19T13:05:07.621Z,15.70
2022-11-19T13:08:39.194Z,17.90
2022-11-19T13:12:09.528Z,19.20
2022-11-19T13:15:41.216Z,17.80
2022-11-19T13:19:21.105Z,18.00
2022-11-19T13:22:51.858Z,19.30
2022-11-19T13:26:21.765Z,15.80
2022-11-19T13:29:54.129Z,15.90
2022-11-19T13:33:23.976Z,19.00
2022-11-19T13:36:59.712Z,19.20
2022-11-19T13:40:31.731Z,15.60
2022-11-19T13:44:22.766Z,19.80
2022-11-19T13:47:58.120Z,22.80
2022-11-19T13:51:31.671Z,23.60
2022-11-19T13:55:00.719Z,22.50
2022-11-19T13:58:33.909Z,26.30
2022-11-19T14:02:21.836Z,28.20
2022-11-19T14:06:08.700Z,24.10
2022-11-19T14:09:45.705Z,25.10
2022-11-19T14:13:34.932Z,27.50
2022-11-19T14:17:25.175Z,24.60
2022-11-19T14:21:09.749Z,28.50
2022-11-19T14:25:12.271Z,31.30
2022-11-19T14:28:56.966Z,45.30
2022-11-19T14:32:31.858Z,42.50
2022-11-19T14:35:58.596Z,49.80
2022-11-19T14:39:29.794Z,45.50
2022-11-19T14:43:46.424Z,43.90
2022-11-19T14:47:35.034Z,43.70
2022-11-19T14:51:07.428Z,34.60
2022-11-19T14:54:43.997Z,41.80
2022-11-19T14:58:24.380Z,43.10
2022-11-19T15:02:02.568Z,41.90
2022-11-19T15:05:34.571Z,48.70
2022-11-19T15:09:02.243Z,49.70
2022-11-19T15:12:46.654Z,42.90
2022-11-19T15:16:16.045Z,41.30
2022-11-19T15:19:51.862Z,48.90
2022-11-19T15:23:27.146Z,40.90
2022-11-19T15:27:01.409Z,39.00
2022-11-19T15:30:41.813Z,42.90
2022-11-19T15:34:38.472Z,35.40
2022-11-19T15:38:31.046Z,42.90
2022-11-19T15:42:02.303Z,42.80
2022-11-19T15:45:32.565Z,35.60
2022-11-19T15:49:07.365Z,35.60
2022-11-19T15:52:34.678Z,33.30
2022-11-19T15:56:04.070Z,35.50
2022-11-19T15:59:33.944Z,39.70
2022-11-19T16:03:01.982Z,35.40
2022-11-19T16:06:30.475Z,32.50
2022-11-19T16:09:58.108Z,35.10
2022-11-19T16:13:43.949Z,35.30
2022-11-19T16:17:41.734Z,31.70
2022-11-19T16:21:10.121Z,33.70
2022-11-19T16:24:54.577Z,44.70
2022-11-19T16:28:30.466Z,36.60
2022-11-19T16:32:00.597Z,34.70
2022-11-19T16:35:29.733Z,35.80
2022-11-19T16:38:57.288Z,36.60
2022-11-19T16:42:42.284Z,42.60
2022-11-19T16:46:11.423Z,41.70
2022-11-19T16:49:52.751Z,37.10
2022-11-19T16:53:48.545Z,41.20
2022-11-19T16:57:19.241Z,40.40
2022-11-19T17:00:49.779Z,39.10
2022-11-19T17:04:16.711Z,43.40
2022-11-19T17:07:48.087Z,45.20
2022-11-19T17:11:38.576Z,45.50
2022-11-19T17:15:36.772Z,43.00
2022-11-19T17:19:13.990Z,25.30
2022-11-19T17:22:41.781Z,45.00
2022-11-19T17:26:09.548Z,47.20
2022-11-19T17:29:36.274Z,42.60
2022-11-19T17:33:05.772Z,40.00
2022-11-19T17:36:33.489Z,35.90
2022-11-19T17:40:00.197Z,42.00
2022-11-19T17:43:49.095Z,40.80
2022-11-19T17:47:22.862Z,39.50
2022-11-19T17:50:51.633Z,38.70
2022-11-19T17:54:18.719Z,35.40
2022-11-19T17:57:45.939Z,37.10
2022-11-19T18:01:13.575Z,39.40
2022-11-19T18:04:40.245Z,42.10
2022-11-19T18:08:07.268Z,42.60
2022-11-19T18:11:34.386Z,45.00
2022-11-19T18:15:02.327Z,36.20
2022-11-19T18:18:29.198Z,34.40
2022-11-19T18:21:56.230Z,39.20
2022-11-19T18:25:23.496Z,34.80
2022-11-19T18:28:50.271Z,40.20
2022-11-19T18:32:17.247Z,33.50
2022-11-19T18:35:44.279Z,39.10
2022-11-19T18:39:10.907Z,35.60
2022-11-19T18:42:37.535Z,32.90
2022-11-19T18:46:04.099Z,37.80
2022-11-19T18:49:30.859Z,31.00
2022-11-19T18:52:57.463Z,29.00
2022-11-19T18:56:24.403Z,33.40
2022-11-19T18:59:51.011Z,32.30
2022-11-19T19:03:17.678Z,35.60
2022-11-19T19:06:44.726Z,29.60
2022-11-19T19:10:13.883Z,35.60
2022-11-19T19:13:40.541Z,32.50
2022-11-19T19:17:07.469Z,30.10
2022-11-19T19:20:36.078Z,32.70
2022-11-19T19:24:05.205Z,29.30
2022-11-19T19:27:31.814Z,35.30
2022-11-19T19:31:01.072Z,28.80
2022-11-19T19:34:29.026Z,33.80
2022-11-19T19:37:56.145Z,36.60
2022-11-19T19:41:25.333Z,27.60
2022-11-19T19:48:17.533Z,23.40
2022-11-19T19:51:44.413Z,25.30
2022-11-19T19:55:11.870Z,27.40
2022-11-19T19:58:38.967Z,29.40
2022-11-19T20:02:05.707Z,30.70
2022-11-19T20:05:32.813Z,29.90
2022-11-19T20:09:03.179Z,30.20
2022-11-19T20:12:47.514Z,33.60
2022-11-19T20:16:19.570Z,28.50
2022-11-19T20:19:46.487Z,30.00
2022-11-19T20:23:13.302Z,27.60
2022-11-19T20:26:40.502Z,32.80
2022-11-19T20:30:09.594Z,30.10
2022-11-19T20:33:37.135Z,28.30
2022-11-19T20:37:04.244Z,25.30
2022-11-19T20:40:31.268Z,28.90
2022-11-19T20:44:15.426Z,25.70
2022-11-19T20:47:42.517Z,25.30
2022-11-19T20:51:09.724Z,25.30
2022-11-19T20:54:37.038Z,22.30
2022-11-19T20:58:03.781Z,21.90
2022-11-19T21:01:31.547Z,25.30
2022-11-19T21:04:58.329Z,29.60
2022-11-19T21:08:25.431Z,29.10
2022-11-19T21:11:52.393Z,25.90
2022-11-19T21:15:19.280Z,30.00
2022-11-19T21:18:46.430Z,34.60
2022-11-19T21:22:13.421Z,29.20
2022-11-19T21:25:40.097Z,28.10
2022-11-19T21:29:07.075Z,29.30
2022-11-19T21:32:33.915Z,26.60
2022-11-19T21:36:03.278Z,28.70
2022-11-19T21:39:30.016Z,25.50
2022-11-19T21:42:56.728Z,28.50
2022-11-19T21:46:23.633Z,29.10
2022-11-19T21:49:50.393Z,24.90
2022-11-19T21:53:18.539Z,27.80
2022-11-19T21:56:45.412Z,29.40
2022-11-19T22:00:14.474Z,26.80
2022-11-19T22:03:42.317Z,27.20
2022-11-19T22:07:09.585Z,35.10
2022-11-19T22:10:38.338Z,27.60
2022-11-19T22:14:09.598Z,28.40
2022-11-19T22:17:37.061Z,27.60
2022-11-19T22:21:04.984Z,24.90
2022-11-19T22:24:32.439Z,30.60
2022-11-19T22:27:59.068Z,26.50
2022-11-19T22:31:26.030Z,30.80
2022-11-19T22:34:53.044Z,28.90
2022-11-19T22:38:19.748Z,31.00
2022-11-19T22:41:46.721Z,28.70
2022-11-19T22:45:13.663Z,29.00
2022-11-19T22:48:40.876Z,26.20
2022-11-19T22:52:07.921Z,24.70
2022-11-19T22:55:37.116Z,27.80
2022-11-19T22:59:04.949Z,25.00
2022-11-19T23:02:32.795Z,26.10
2022-11-19T23:06:00.316Z,24.90
2022-11-19T23:09:26.932Z,22.50
2022-11-19T23:13:11.520Z,27.70
2022-11-19T23:16:38.793Z,22.50
2022-11-19T23:20:06.694Z,24.50
2022-11-19T23:23:33.638Z,21.20
2022-11-19T23:27:00.380Z,23.40
2022-11-19T23:30:27.095Z,22.30
2022-11-19T23:33:58.981Z,26.90
2022-11-19T23:37:26.472Z,25.90
2022-11-19T23:41:01.088Z,25.60
2022-11-19T23:44:28.054Z,31.50
2022-11-19T23:47:54.634Z,26.20
2022-11-19T23:51:23.897Z,23.70
2022-11-19T23:54:50.583Z,25.20
2022-11-19T23:58:17.301Z,26.90
